Time;durP1;ratioP1;P1;durP2;ratioP2;P2;SDS_P1;SDS_P2;PMS_P1;PMS_P2;Temp;Humidity;BMP_temperature;BMP_pressure;BME280_temperature;BME280_humidity;BME280_pressure;Samples;Min_cycle;Max_cycle;Signal;HPM_P1;HPM_P2
2023/04/20 00:02:04;;;;;;;7.33;4.33;;;0.00;1.00;0.80;93908.00;;;;7400285;19;20145;-77
2023/04/20 00:04:38;;;;;;;5.33;4.10;;;0.00;1.00;0.80;93883.00;;;;7402632;19;20157;-77
2023/04/20 00:07:05;;;;;;;6.93;4.43;;;-0.10;1.00;0.60;93908.00;;;;7402301;19;20148;-77
2023/04/20 00:09:38;;;;;;;6.80;4.40;;;-0.10;1.00;0.40;93904.00;;;;7401258;19;20139;-77
2023/04/20 00:12:13;;;;;;;8.03;4.23;;;-0.20;1.00;0.20;93906.00;;;;7401784;19;20148;-77
2023/04/20 00:14:47;;;;;;;5.40;4.50;;;-0.30;99.90;0.10;93862.00;;;;7402171;19;20210;-78
2023/04/20 00:17:14;;;;;;;5.13;3.83;;;-0.40;99.90;0.10;93907.00;;;;7402065;19;20191;-79
2023/04/20 00:19:48;;;;;;;5.03;4.20;;;-0.40;99.90;0.10;93903.00;;;;7402379;19;20150;-77
2023/04/20 00:22:15;;;;;;;8.07;4.47;;;-0.40;1.00;0.20;93838.00;;;;7402743;19;20512;-77
2023/04/20 00:24:49;;;;;;;6.43;4.50;;;-0.50;1.00;0.20;93884.00;;;;7401781;19;20157;-77
2023/04/20 00:27:23;;;;;;;5.90;4.53;;;-0.50;1.00;0.20;93890.00;;;;7402773;19;20153;-78
2023/04/20 00:29:50;;;;;;;6.63;4.10;;;-0.50;1.00;0.00;93848.00;;;;7400747;19;20155;-77
2023/04/20 00:32:31;;;;;;;7.70;4.80;;;-0.70;1.00;0.00;93863.00;;;;7400976;19;20124;-78
2023/04/20 00:35:05;;;;;;;12.37;5.07;;;-0.70;99.90;-0.10;93869.00;;;;7400215;19;20144;-78
2023/04/20 00:37:34;;;;;;;5.23;4.47;;;-0.70;99.90;-0.10;93880.00;;;;7400664;19;20160;-77
2023/04/20 00:40:09;;;;;;;6.13;4.57;;;-0.80;99.90;-0.20;93830.00;;;;7401703;19;20136;-78
2023/04/20 00:42:36;;;;;;;7.57;5.07;;;-0.90;99.90;-0.20;93867.00;;;;7400193;19;20254;-77
2023/04/20 00:45:10;;;;;;;6.93;5.17;;;-0.90;1.00;-0.20;93838.00;;;;7399503;19;20544;-77
2023/04/20 00:47:37;;;;;;;7.50;4.57;;;-0.90;1.00;-0.30;93812.00;;;;7400162;19;20790;-77
2023/04/20 00:50:11;;;;;;;6.80;5.03;;;-0.90;1.00;-0.30;93812.00;;;;7400186;19;20469;-77
2023/04/20 00:52:39;;;;;;;7.60;5.33;;;-0.90;1.00;-0.30;93851.00;;;;7400756;19;20140;-77
2023/04/20 00:55:14;;;;;;;9.00;5.77;;;-1.00;99.90;-0.40;93807.00;;;;7400990;19;21021;-77
2023/04/20 00:57:43;;;;;;;9.43;5.47;;;-1.00;99.90;-0.40;93821.00;;;;7391522;19;20153;-76
2023/04/20 01:00:17;;;;;;;6.50;5.10;;;-1.00;99.90;-0.40;93822.00;;;;7396909;19;20145;-76
2023/04/20 01:02:51;;;;;;;9.30;6.03;;;-1.00;1.00;-0.30;93824.00;;;;7392760;19;20196;-80
2023/04/20 01:05:25;;;;;;;11.50;5.23;;;-1.00;1.00;-0.40;93830.00;;;;7400098;19;20145;-79
2023/04/20 01:07:52;;;;;;;8.53;6.23;;;-1.10;1.00;-0.30;93817.00;;;;7399809;19;20144;-79
2023/04/20 01:10:26;;;;;;;8.57;6.00;;;-1.00;1.00;-0.20;93823.00;;;;7400274;19;20121;-80
2023/04/20 01:12:53;;;;;;;9.23;6.40;;;-1.10;1.00;-0.20;93805.00;;;;7398230;19;20153;-80
2023/04/20 01:15:27;;;;;;;8.67;6.20;;;-1.10;1.00;-0.10;93820.00;;;;7398077;19;20641;-80
2023/04/20 01:17:56;;;;;;;11.13;5.97;;;-1.00;1.00;0.00;93800.00;;;;7399923;19;20163;-79
2023/04/20 01:20:30;;;;;;;7.40;5.97;;;-1.00;1.00;0.00;93772.00;;;;7400696;19;20579;-79
2023/04/20 01:22:57;;;;;;;12.50;6.37;;;-1.00;1.00;0.10;93809.00;;;;7399238;19;20149;-80
2023/04/20 01:25:30;;;;;;;11.03;7.00;;;-0.90;1.00;0.20;93766.00;;;;7399640;19;20154;-79
2023/04/20 01:28:04;;;;;;;11.70;6.80;;;-0.90;1.00;0.10;93792.00;;;;7399120;19;20682;-80
2023/04/20 01:30:38;;;;;;;8.63;6.57;;;-0.90;1.00;0.10;93775.00;;;;7399212;19;20237;-79
2023/04/20 01:33:12;;;;;;;8.03;6.37;;;-0.90;1.00;0.00;93778.00;;;;7398890;19;20695;-79
2023/04/20 01:35:42;;;;;;;7.67;6.43;;;-0.90;1.00;-0.10;93773.00;;;;7397668;19;20177;-79
2023/04/20 01:38:20;;;;;;;13.57;6.00;;;-0.90;1.00;-0.20;93781.00;;;;7398436;19;20153;-79
2023/04/20 01:40:48;;;;;;;9.13;5.47;;;-0.90;1.00;-0.40;93747.00;;;;7397713;19;20156;-79
2023/04/20 01:43:22;;;;;;;8.97;6.03;;;-1.00;1.00;-0.30;93763.00;;;;7400512;19;20120;-79
2023/04/20 01:45:49;;;;;;;8.60;6.00;;;-1.00;1.00;-0.40;93758.00;;;;7398048;19;20172;-79
2023/04/20 01:48:22;;;;;;;9.13;5.60;;;-1.10;1.00;-0.40;93746.00;;;;7398518;19;20145;-79
2023/04/20 01:50:56;;;;;;;9.60;6.30;;;-1.10;1.00;-0.40;93738.00;;;;7398356;19;20146;-79
2023/04/20 01:53:30;;;;;;;9.50;6.20;;;-1.10;1.00;-0.50;93718.00;;;;7397875;19;20153;-79
2023/04/20 01:56:04;;;;;;;11.57;6.87;;;-1.10;1.00;-0.40;93752.00;;;;7397380;19;20136;-79
2023/04/20 01:58:32;;;;;;;12.17;5.93;;;-1.10;1.00;-0.50;93689.00;;;;7396698;19;20576;-79
2023/04/20 02:01:05;;;;;;;7.93;6.67;;;-1.10;1.00;-0.70;93718.00;;;;7397715;19;20173;-80
2023/04/20 02:03:39;;;;;;;12.87;6.60;;;-1.10;1.00;-0.70;93700.00;;;;7395959;19;20654;-79
2023/04/20 02:06:14;;;;;;;12.93;6.73;;;-1.20;1.00;-0.60;93727.00;;;;7397488;19;20148;-79
2023/04/20 02:08:41;;;;;;;11.27;6.90;;;-1.20;1.00;-0.60;93695.00;;;;7393940;19;20203;-78
2023/04/20 02:11:21;;;;;;;9.40;7.10;;;-1.30;1.00;-0.70;93707.00;;;;7398817;19;20133;-77
2023/04/20 02:13:54;;;;;;;13.27;7.10;;;-1.30;1.00;-0.60;93696.00;;;;7397064;19;20195;-77
2023/04/20 02:16:22;;;;;;;12.30;7.23;;;-1.30;1.00;-0.60;93734.00;;;;7398833;19;20184;-76
2023/04/20 02:18:56;;;;;;;10.93;6.83;;;-1.30;19.70;-0.70;93723.00;;;;7398928;19;20163;-75
2023/04/20 02:21:23;;;;;;;12.20;7.07;;;-1.40;36.50;-0.70;93703.00;;;;7399742;19;20473;-75
2023/04/20 02:23:51;;;;;;;10.13;7.03;;;-1.40;43.30;-0.60;93700.00;;;;7398555;19;20120;-75
2023/04/20 02:26:24;;;;;;;13.80;7.13;;;-1.40;99.90;-0.70;93724.00;;;;7396942;19;20142;-76
2023/04/20 02:28:58;;;;;;;10.10;7.03;;;-1.40;99.90;-0.70;93723.00;;;;7397899;19;20484;-75
2023/04/20 02:31:33;;;;;;;11.47;7.07;;;-1.40;99.90;-0.70;93709.00;;;;7397657;19;20486;-75
2023/04/20 02:34:00;;;;;;;9.93;7.27;;;-1.30;99.90;-0.70;93693.00;;;;7397852;19;20148;-75
2023/04/20 02:36:33;;;;;;;14.33;7.40;;;-1.40;99.90;-0.80;93717.00;;;;7396853;19;20599;-77
2023/04/20 02:39:01;;;;;;;12.40;7.73;;;-1.40;99.90;-0.80;93691.00;;;;7399634;19;20475;-75
2023/04/20 02:41:36;;;;;;;9.30;7.00;;;-1.40;99.90;-0.80;93686.00;;;;7397819;19;20246;-75
2023/04/20 02:44:10;;;;;;;10.40;8.10;;;-1.40;99.90;-0.70;93663.00;;;;7398764;19;20132;-75
2023/04/20 02:46:44;;;;;;;10.60;6.83;;;-1.40;99.90;-0.80;93717.00;;;;7396386;19;20148;-76
2023/04/20 02:49:11;;;;;;;11.97;6.90;;;-1.50;99.90;-0.80;93705.00;;;;7397401;19;20192;-75
2023/04/20 02:51:45;;;;;;;12.37;7.30;;;-1.40;99.90;-0.80;93672.00;;;;7397436;19;20121;-76
2023/04/20 02:54:19;;;;;;;10.03;7.60;;;-1.50;99.90;-0.90;93672.00;;;;7397686;19;20121;-76
2023/04/20 02:56:53;;;;;;;14.30;7.53;;;-1.50;99.90;-0.90;93652.00;;;;7392292;19;20602;-75
2023/04/20 02:59:27;;;;;;;13.77;7.33;;;-1.40;99.90;-0.80;93667.00;;;;7396993;19;20590;-76
2023/04/20 03:02:01;;;;;;;9.10;7.07;;;-1.40;99.90;-0.90;93647.00;;;;7396798;19;20533;-76
2023/04/20 03:04:35;;;;;;;12.03;7.50;;;-1.40;99.90;-0.80;93649.00;;;;7396055;19;20128;-76
2023/04/20 03:07:09;;;;;;;10.87;7.90;;;-1.40;99.90;-0.80;93667.00;;;;7397205;19;20519;-75
2023/04/20 03:09:37;;;;;;;13.10;8.40;;;-1.40;99.90;-0.90;93684.00;;;;7395291;19;20659;-75
2023/04/20 03:12:10;;;;;;;16.67;7.97;;;-1.40;99.90;-0.80;93677.00;;;;7397022;19;20125;-75
2023/04/20 03:14:45;;;;;;;13.63;7.80;;;-1.40;99.90;-0.80;93605.00;;;;7396667;19;20161;-77
2023/04/20 03:17:12;;;;;;;11.57;7.37;;;-1.40;99.90;-0.80;93643.00;;;;7395972;19;20148;-76
2023/04/20 03:19:45;;;;;;;11.10;7.57;;;-1.40;99.90;-0.90;93651.00;;;;7397066;19;20170;-75
2023/04/20 03:22:19;;;;;;;14.27;8.73;;;-1.40;99.90;-0.80;93665.00;;;;7396556;19;20619;-76
2023/04/20 03:24:53;;;;;;;14.33;8.30;;;-1.40;99.90;-0.90;93679.00;;;;7397003;19;20148;-76
2023/04/20 03:27:27;;;;;;;18.43;9.40;;;-1.40;99.90;-0.80;93674.00;;;;7403901;19;20133;-77
2023/04/20 03:30:01;;;;;;;10.97;7.70;;;-1.40;99.90;-0.90;93652.00;;;;7403494;19;20595;-75
2023/04/20 03:32:37;;;;;;;14.27;7.67;;;-1.50;99.90;-1.00;93617.00;;;;7404949;19;20494;-76
2023/04/20 03:35:10;;;;;;;15.53;8.33;;;-1.60;99.90;-1.00;93663.00;;;;7403335;19;20116;-76
2023/04/20 03:37:44;;;;;;;17.43;8.37;;;-1.60;99.90;-1.00;93644.00;;;;7400377;19;20658;-75
2023/04/20 03:40:12;;;;;;;14.70;9.53;;;-1.60;99.90;-1.10;93668.00;;;;7402423;19;20520;-76
2023/04/20 03:42:46;;;;;;;12.00;7.70;;;-1.70;99.90;-1.10;93648.00;;;;7403688;19;20116;-75
2023/04/20 03:45:15;;;;;;;11.67;8.13;;;-1.60;99.90;-1.10;93628.00;;;;7403028;19;20612;-77
2023/04/20 03:47:48;;;;;;;14.47;8.73;;;-1.60;99.90;-1.10;93620.00;;;;7405332;19;20136;-77
2023/04/20 03:50:16;;;;;;;10.23;7.70;;;-1.70;99.90;-1.20;93623.00;;;;7397961;19;20133;-76
2023/04/20 03:52:49;;;;;;;10.63;7.57;;;-1.80;99.90;-1.30;93617.00;;;;7402942;19;20190;-79
2023/04/20 03:55:25;;;;;;;13.00;8.00;;;-1.90;99.90;-1.40;93668.00;;;;7403987;19;20136;-76
2023/04/20 03:57:58;;;;;;;18.43;10.73;;;-2.00;99.90;-1.20;93627.00;;;;7395978;19;20148;-76
2023/04/20 04:00:32;;;;;;;16.03;9.07;;;-2.00;99.90;-1.00;93658.00;;;;7403906;19;20124;-76
2023/04/20 04:03:07;;;;;;;13.00;9.17;;;-1.90;99.90;-1.00;93666.00;;;;7402341;19;20714;-76
2023/04/20 04:05:42;;;;;;;17.53;10.10;;;-1.80;99.90;-0.90;93627.00;;;;7402227;19;20152;-77
2023/04/20 04:08:09;;;;;;;15.13;10.10;;;-1.80;99.90;-0.90;93658.00;;;;7402201;19;20153;-76
2023/04/20 04:10:49;;;;;;;13.03;9.67;;;-1.70;1.00;-0.80;93647.00;;;;7402627;19;20224;-76
2023/04/20 04:13:23;;;;;;;17.30;13.33;;;-1.70;1.00;-0.80;93656.00;;;;7404279;19;20140;-77
2023/04/20 04:16:00;;;;;;;16.90;10.43;;;-1.70;1.00;-0.90;93658.00;;;;7403771;19;20124;-76
2023/04/20 04:18:43;;;;;;;18.90;11.27;;;-1.80;1.00;-1.10;93664.00;;;;7402376;19;20629;-76
2023/04/20 04:21:17;;;;;;;18.07;10.30;;;-1.80;1.00;-1.10;93664.00;;;;7402318;19;20152;-77
2023/04/20 04:23:51;;;;;;;13.67;9.23;;;-1.80;1.00;-1.20;93636.00;;;;7402163;19;20149;-77
2023/04/20 04:26:23;;;;;;;14.73;8.80;;;-1.80;1.00;-1.20;93659.00;;;;7401662;19;20182;-77
2023/04/20 04:28:58;;;;;;;13.27;9.13;;;-1.80;1.00;-1.20;93608.00;;;;7401388;19;20513;-77
2023/04/20 04:31:26;;;;;;;15.17;9.70;;;-1.90;1.00;-1.10;93604.00;;;;7403834;19;20146;-76
2023/04/20 04:33:53;;;;;;;16.03;9.73;;;-1.80;1.00;-1.10;93646.00;;;;7401447;19;20132;-77
2023/04/20 04:36:28;;;;;;;16.87;10.27;;;-1.70;1.00;-1.00;93658.00;;;;7401220;19;20129;-77
2023/04/20 04:38:55;;;;;;;15.43;9.47;;;-1.70;1.00;-1.00;93609.00;;;;7402684;19;20136;-76
2023/04/20 04:41:29;;;;;;;14.80;9.83;;;-1.60;1.00;-1.00;93613.00;;;;7402379;19;20162;-77
2023/04/20 04:43:58;;;;;;;21.90;10.03;;;-1.60;1.00;-0.90;93642.00;;;;7402362;19;20113;-77
2023/04/20 04:46:32;;;;;;;15.60;9.60;;;-1.60;1.00;-0.80;93606.00;;;;7401202;19;20140;-76
2023/04/20 04:48:59;;;;;;;16.53;10.03;;;-1.50;1.00;-0.80;93638.00;;;;7403406;19;20185;-76
2023/04/20 04:51:34;;;;;;;14.37;10.07;;;-1.50;1.00;-0.80;93642.00;;;;7398603;19;20155;-77
2023/04/20 04:54:02;;;;;;;15.53;9.30;;;-1.50;1.00;-0.70;93637.00;;;;7399415;19;20658;-76
2023/04/20 04:56:36;;;;;;;15.60;10.10;;;-1.50;1.00;-0.60;93618.00;;;;7395567;19;20927;-76
2023/04/20 04:59:10;;;;;;;17.70;10.40;;;-1.40;1.00;-0.50;93597.00;;;;7394181;19;20538;-76
2023/04/20 05:01:45;;;;;;;13.40;9.73;;;-1.40;1.00;-0.50;93637.00;;;;7396751;19;20124;-78
2023/04/20 05:04:12;;;;;;;18.63;10.30;;;-1.30;1.00;-0.40;93646.00;;;;7396312;19;20176;-78
2023/04/20 05:06:46;;;;;;;14.43;9.77;;;-1.30;1.00;-0.40;93622.00;;;;7400268;19;20189;-77
2023/04/20 05:09:32;;;;;;;18.83;10.00;;;-1.30;1.00;-0.30;93645.00;;;;7397945;19;20157;-76
2023/04/20 05:12:06;;;;;;;17.43;10.63;;;-1.20;1.00;-0.20;93582.00;;;;7401872;19;20480;-77
2023/04/20 05:14:34;;;;;;;16.57;11.17;;;-1.10;1.00;-0.10;93653.00;;;;7399297;19;20136;-77
2023/04/20 05:17:07;;;;;;;17.33;10.90;;;-1.00;1.00;0.10;93604.00;;;;7400010;19;20625;-76
2023/04/20 05:19:34;;;;;;;17.10;10.87;;;-0.90;1.00;0.30;93643.00;;;;7400296;19;20611;-77
2023/04/20 05:22:08;;;;;;;18.07;11.80;;;-0.80;1.00;0.30;93618.00;;;;7401196;19;20136;-76
2023/04/20 05:24:35;;;;;;;15.83;11.30;;;-0.70;1.00;0.40;93605.00;;;;7400865;19;20133;-76
2023/04/20 05:27:10;;;;;;;18.27;10.83;;;-0.60;1.00;0.50;93644.00;;;;7400968;19;20149;-76
2023/04/20 05:29:37;;;;;;;14.87;10.27;;;-0.50;1.00;0.60;93630.00;;;;7402135;19;20138;-77
2023/04/20 05:32:11;;;;;;;20.40;11.20;;;-0.50;1.00;0.70;93641.00;;;;7400893;19;20614;-77
2023/04/20 05:34:45;;;;;;;15.37;11.07;;;-0.40;1.00;0.80;93637.00;;;;7401922;19;20144;-76
2023/04/20 05:37:19;;;;;;;14.63;10.27;;;-0.30;1.00;1.00;93587.00;;;;7401318;19;20136;-77
2023/04/20 05:39:46;;;;;;;18.60;10.30;;;-0.30;1.00;1.10;93603.00;;;;7401623;19;20133;-77
2023/04/20 05:42:27;;;;;;;16.67;10.13;;;-0.10;1.00;1.30;93579.00;;;;7399463;19;20137;-76
2023/04/20 05:45:00;;;;;;;16.20;10.60;;;-0.10;1.00;1.40;93620.00;;;;7400217;19;20136;-76
2023/04/20 05:47:34;;;;;;;16.40;10.90;;;0.00;1.00;1.50;93634.00;;;;7398147;19;20623;-76
2023/04/20 05:50:09;;;;;;;15.30;10.30;;;0.20;1.00;1.70;93603.00;;;;7401632;19;20137;-75
2023/04/20 05:52:42;;;;;;;15.97;10.03;;;0.40;1.00;2.00;93611.00;;;;7400677;19;20140;-76
2023/04/20 05:55:09;;;;;;;17.60;10.17;;;0.40;1.00;2.00;93634.00;;;;7399112;19;20231;-77
2023/04/20 05:57:46;;;;;;;17.57;11.57;;;0.50;1.00;2.10;93637.00;;;;7394472;19;20132;-77
2023/04/20 06:00:20;;;;;;;15.63;10.30;;;0.70;1.00;2.40;93646.00;;;;7399148;19;20141;-77
2023/04/20 06:02:54;;;;;;;12.97;10.43;;;0.80;1.00;2.60;93638.00;;;;7399148;19;20169;-77
2023/04/20 06:05:29;;;;;;;14.73;10.27;;;1.00;1.00;2.80;93643.00;;;;7398465;19;20241;-78
2023/04/20 06:07:56;;;;;;;20.00;8.90;;;1.10;99.90;3.00;93627.00;;;;7398431;19;20121;-76
2023/04/20 06:10:23;;;;;;;12.90;8.73;;;1.20;99.90;3.00;93619.00;;;;7396913;19;20151;-79
2023/04/20 06:12:57;;;;;;;11.60;8.80;;;1.30;1.00;3.20;93601.00;;;;7399913;19;20140;-77
2023/04/20 06:15:24;;;;;;;14.17;8.83;;;1.40;1.00;3.40;93609.00;;;;7399010;19;20133;-77
2023/04/20 06:18:00;;;;;;;12.30;8.63;;;1.60;99.90;3.40;93620.00;;;;7397482;19;20137;-77
2023/04/20 06:20:27;;;;;;;12.87;8.27;;;1.70;1.00;3.50;93636.00;;;;7398819;19;20141;-76
2023/04/20 06:23:01;;;;;;;13.97;7.97;;;1.80;1.00;3.80;93645.00;;;;7397717;19;20120;-77
2023/04/20 06:25:28;;;;;;;14.13;7.97;;;1.90;1.00;4.10;93634.00;;;;7397437;19;20157;-76
2023/04/20 06:28:03;;;;;;;13.60;7.50;;;2.00;1.00;4.50;93601.00;;;;7398186;19;20218;-77
2023/04/20 06:30:34;;;;;;;12.07;7.20;;;2.20;1.00;5.20;93608.00;;;;7399644;19;20133;-76
2023/04/20 06:33:07;;;;;;;11.63;7.40;;;2.40;1.00;5.60;93632.00;;;;7398173;19;20136;-76
2023/04/20 06:35:38;;;;;;;10.53;6.07;;;2.70;1.00;6.00;93601.00;;;;7399269;19;20584;-75
2023/04/20 06:38:12;;;;;;;11.93;6.93;;;2.80;99.90;6.30;93620.00;;;;7397036;19;20132;-76
2023/04/20 06:40:39;;;;;;;11.73;6.40;;;3.00;1.00;6.60;93628.00;;;;7399547;19;20615;-75
2023/04/20 06:43:13;;;;;;;10.43;6.67;;;3.20;1.00;6.60;93626.00;;;;7398745;19;20201;-76
2023/04/20 06:45:41;;;;;;;9.13;6.30;;;3.40;1.00;7.10;93630.00;;;;7396636;19;20168;-75
2023/04/20 06:48:14;;;;;;;9.43;6.03;;;3.50;99.90;7.40;93617.00;;;;7399356;19;20632;-76
2023/04/20 06:50:58;;;;;;;8.50;5.77;;;3.70;99.90;7.20;93631.00;;;;7397635;19;20132;-74
2023/04/20 06:53:32;;;;;;;8.80;6.50;;;3.70;99.90;6.60;93624.00;;;;7398016;19;20151;-76
2023/04/20 06:56:07;;;;;;;9.30;6.37;;;3.90;1.00;6.20;93632.00;;;;7396617;19;20658;-77
2023/04/20 06:58:41;;;;;;;12.77;6.60;;;3.90;1.00;6.30;93605.00;;;;7392287;19;20511;-75
2023/04/20 07:01:10;;;;;;;9.80;6.20;;;3.90;99.90;6.50;93632.00;;;;7406085;19;20453;-76
2023/04/20 07:03:37;;;;;;;7.57;5.40;;;4.00;1.00;7.10;93589.00;;;;7403640;19;20588;-77
2023/04/20 07:06:11;;;;;;;9.00;6.53;;;4.20;1.00;7.60;93589.00;;;;7405579;19;20132;-77
2023/04/20 07:08:39;;;;;;;8.00;5.87;;;4.50;99.90;7.90;93619.00;;;;7405330;19;20133;-77
2023/04/20 07:11:19;;;;;;;9.10;5.53;;;4.70;99.90;8.40;93588.00;;;;7404472;19;20149;-74
2023/04/20 07:13:46;;;;;;;8.20;6.43;;;5.00;99.90;8.90;93617.00;;;;7404122;19;20125;-78
2023/04/20 07:16:20;;;;;;;8.73;5.30;;;5.20;99.90;8.80;93610.00;;;;7403863;19;20133;-77
2023/04/20 07:18:55;;;;;;;8.37;5.60;;;5.40;15.80;9.10;93601.00;;;;7404005;19;20154;-77
2023/04/20 07:21:23;;;;;;;6.87;5.77;;;5.60;1.00;8.70;93576.00;;;;7404119;19;20133;-78
2023/04/20 07:23:57;;;;;;;6.63;5.37;;;5.70;1.00;8.50;93613.00;;;;7405303;19;20196;-77
2023/04/20 07:26:31;;;;;;;8.70;5.53;;;5.70;1.00;8.90;93596.00;;;;7403801;19;20137;-77
2023/04/20 07:29:05;;;;;;;7.25;5.80;;;5.80;1.00;8.90;93599.00;;;;7405468;19;20132;-74
2023/04/20 07:31:39;;;;;;;8.70;5.80;;;6.00;1.00;9.80;93585.00;;;;7403708;19;20603;-77
2023/04/20 07:34:13;;;;;;;8.68;5.32;;;6.30;1.00;9.60;93612.00;;;;7404788;19;20138;-77
2023/04/20 07:36:40;;;;;;;6.90;5.70;;;6.60;99.90;9.50;93605.00;;;;7402759;19;20478;-77
2023/04/20 07:39:14;;;;;;;8.15;6.35;;;6.80;99.90;9.60;93617.00;;;;7403316;19;20125;-76
2023/04/20 07:41:48;;;;;;;8.05;6.00;;;6.80;99.90;8.90;93622.00;;;;7405185;19;20489;-77
2023/04/20 07:44:22;;;;;;;11.50;6.07;;;6.90;99.90;8.30;93610.00;;;;7402918;19;20136;-78
2023/04/20 07:46:56;;;;;;;7.88;6.38;;;6.70;99.90;7.80;93624.00;;;;7402622;19;20125;-79
2023/04/20 07:49:25;;;;;;;13.20;6.20;;;6.40;99.90;8.50;93616.00;;;;7401366;19;20541;-77
2023/04/20 07:51:58;;;;;;;9.50;6.67;;;6.30;99.90;8.40;93624.00;;;;7402875;19;20141;-75
2023/04/20 07:54:41;;;;;;;8.83;6.23;;;6.10;99.90;8.00;93595.00;;;;7402089;19;20440;-80
2023/04/20 07:57:14;;;;;;;12.53;6.70;;;5.80;99.90;9.30;93588.00;;;;7398638;19;20489;-78
2023/04/20 07:59:45;;;;;;;8.60;6.13;;;6.00;1.00;9.60;93588.00;;;;7401853;19;20643;-76
2023/04/20 08:02:18;;;;;;;11.23;6.60;;;6.30;1.00;8.90;93622.00;;;;7402640;19;20132;-78
2023/04/20 08:04:45;;;;;;;8.73;5.97;;;6.40;99.90;8.30;93622.00;;;;7403616;19;20144;-76
2023/04/20 08:07:19;;;;;;;9.20;6.10;;;6.30;99.90;8.30;93601.00;;;;7402584;19;20448;-76
2023/04/20 08:10:02;;;;;;;9.10;6.07;;;6.40;99.90;8.30;93612.00;;;;7401739;19;20182;-75
2023/04/20 08:12:37;;;;;;;7.93;5.87;;;6.30;99.90;8.80;93575.00;;;;7400832;19;20636;-78
2023/04/20 08:15:13;;;;;;;9.93;6.65;;;6.50;99.90;9.30;93571.00;;;;7401019;19;20211;-76
2023/04/20 08:17:40;;;;;;;8.60;5.70;;;6.70;99.90;9.10;93560.00;;;;7403290;19;20129;-78
2023/04/20 08:20:13;;;;;;;9.00;6.47;;;6.80;99.90;10.00;93601.00;;;;7404219;19;20129;-77
2023/04/20 08:22:40;;;;;;;8.75;6.95;;;7.10;99.90;10.80;93575.00;;;;7402437;19;20144;-77
2023/04/20 08:25:14;;;;;;;10.13;6.50;;;7.40;99.90;10.60;93597.00;;;;7402425;19;20184;-77
2023/04/20 08:27:41;;;;;;;8.18;5.47;;;7.80;99.90;9.90;93568.00;;;;7402242;19;20137;-77
2023/04/20 08:30:15;;;;;;;8.27;6.13;;;7.80;88.50;10.40;93555.00;;;;7404258;19;20141;-78
2023/04/20 08:32:49;;;;;;;9.45;6.13;;;8.00;99.90;10.90;93572.00;;;;7402666;19;20213;-77
2023/04/20 08:35:22;;;;;;;9.55;6.00;;;8.30;35.90;10.30;93595.00;;;;7403012;19;20580;-78
2023/04/20 08:37:50;;;;;;;7.45;5.78;;;8.40;4.80;10.80;93611.00;;;;7401333;19;20141;-76
2023/04/20 08:40:27;;;;;;;9.40;6.07;;;8.40;16.50;9.50;93593.00;;;;7403958;19;20133;-77
2023/04/20 08:43:00;;;;;;;11.00;6.05;;;8.00;34.70;9.40;93591.00;;;;7401947;19;20198;-78
2023/04/20 08:45:34;;;;;;;11.40;7.18;;;7.80;61.80;10.80;93580.00;;;;7400634;19;20163;-76
2023/04/20 08:48:09;;;;;;;7.53;6.20;;;8.10;99.90;11.70;93567.00;;;;7401123;19;20128;-76
2023/04/20 08:50:43;;;;;;;7.38;6.15;;;8.70;44.10;11.30;93608.00;;;;7402937;19;20164;-75
2023/04/20 08:53:10;;;;;;;8.93;5.90;;;8.70;1.00;10.60;93572.00;;;;7401387;19;20129;-77
2023/04/20 08:55:37;;;;;;;8.25;5.70;;;8.70;1.00;10.10;93567.00;;;;7402044;19;20133;-77
2023/04/20 08:58:10;;;;;;;8.13;5.93;;;8.60;1.00;10.60;93592.00;;;;7396167;19;20364;-77
2023/04/20 09:00:48;;;;;;;8.15;5.93;;;8.70;1.00;9.60;93554.00;;;;7401483;19;20576;-76
2023/04/20 09:03:15;;;;;;;7.70;5.80;;;8.80;1.00;9.30;93612.00;;;;7399267;19;20220;-77
2023/04/20 09:05:49;;;;;;;7.72;5.90;;;8.50;1.00;9.00;93621.00;;;;7400285;19;20140;-77
2023/04/20 09:08:16;;;;;;;6.55;5.70;;;8.30;1.00;8.40;93562.00;;;;7400764;19;20595;-77
2023/04/20 09:10:57;;;;;;;7.43;5.90;;;7.70;1.00;8.10;93580.00;;;;7398672;19;20620;-78
2023/04/20 09:13:24;;;;;;;8.57;7.10;;;7.30;11.80;7.60;93593.00;;;;7400087;19;20604;-77
2023/04/20 09:16:12;;;;;;;10.27;6.63;;;7.00;27.50;7.10;93625.00;;;;7399848;19;20132;-76
2023/04/20 09:18:39;;;;;;;10.87;7.23;;;6.50;99.90;6.90;93607.00;;;;7401298;19;20604;-77
2023/04/20 09:21:13;;;;;;;9.13;6.80;;;6.30;99.90;6.60;93578.00;;;;7400070;19;20149;-77
2023/04/20 09:23:40;;;;;;;10.97;7.93;;;6.10;99.90;6.30;93608.00;;;;7400574;19;20464;-78
2023/04/20 09:26:17;;;;;;;11.70;7.77;;;6.00;99.90;6.00;93632.00;;;;7399841;19;20552;-78
2023/04/20 09:28:45;;;;;;;10.67;7.83;;;5.60;99.90;6.20;93592.00;;;;7400318;19;20188;-77
2023/04/20 09:31:21;;;;;;;10.73;7.70;;;5.60;99.90;6.00;93623.00;;;;7399945;19;20135;-78
2023/04/20 09:34:00;;;;;;;11.33;8.07;;;5.40;99.90;6.10;93592.00;;;;7401264;19;20135;-77
2023/04/20 09:36:45;;;;;;;10.83;8.60;;;5.20;99.90;6.10;93627.00;;;;7398823;19;20480;-78
2023/04/20 09:39:23;;;;;;;12.57;9.03;;;5.20;99.90;5.90;93602.00;;;;7398453;19;20145;-77
2023/04/20 09:42:04;;;;;;;11.37;8.60;;;5.10;99.90;5.50;93606.00;;;;7400240;19;20161;-76
2023/04/20 09:44:38;;;;;;;11.63;8.73;;;4.90;1.00;5.20;93640.00;;;;7397955;19;20125;-77
2023/04/20 09:47:17;;;;;;;12.90;9.23;;;4.80;1.00;5.40;93625.00;;;;7400829;19;20150;-79
2023/04/20 09:49:53;;;;;;;13.47;9.43;;;4.70;1.00;5.50;93604.00;;;;7398930;19;20616;-78
2023/04/20 09:52:48;;;;;;;12.87;9.13;;;4.70;1.00;5.30;93631.00;;;;7398943;19;20140;-77
2023/04/20 09:55:15;;;;;;;12.83;8.80;;;4.70;1.00;5.30;93633.00;;;;7398379;19;20133;-78
2023/04/20 09:57:51;;;;;;;12.57;8.10;;;4.70;1.00;5.10;93622.00;;;;7394766;19;20220;-78
2023/04/20 10:00:19;;;;;;;9.20;8.20;;;4.80;1.00;5.30;93575.00;;;;7400215;19;20121;-76
2023/04/20 10:02:55;;;;;;;14.07;8.90;;;4.70;1.00;5.00;93558.00;;;;7398189;19;20179;-77
2023/04/20 10:05:38;;;;;;;11.63;7.80;;;4.50;1.00;4.70;93582.00;;;;7397835;19;20216;-77
2023/04/20 10:08:11;;;;;;;11.40;7.93;;;4.30;69.60;4.50;93587.00;;;;7399833;19;20461;-76
2023/04/20 10:10:52;;;;;;;16.57;9.50;;;4.20;99.90;4.30;93611.00;;;;7397042;19;20164;-77
2023/04/20 10:13:32;;;;;;;14.87;9.00;;;4.00;99.90;4.00;93633.00;;;;7398091;19;20141;-78
2023/04/20 10:16:20;;;;;;;14.07;9.23;;;3.80;1.00;4.00;93586.00;;;;7398615;19;20132;-77
2023/04/20 10:19:03;;;;;;;18.87;12.20;;;3.70;1.00;4.00;93588.00;;;;7396428;19;20200;-78
2023/04/20 10:21:46;;;;;;;14.63;9.57;;;3.60;99.90;4.10;93623.00;;;;7396909;19;20871;-76
2023/04/20 10:24:30;;;;;;;18.63;10.47;;;3.60;1.00;4.30;93611.00;;;;7398111;19;20133;-77
2023/04/20 10:26:58;;;;;;;16.73;10.63;;;3.70;1.00;4.30;93599.00;;;;7397643;19;20614;-78
2023/04/20 10:29:31;;;;;;;13.37;10.23;;;3.60;1.00;4.20;93600.00;;;;7398029;19;20145;-77
2023/04/20 10:32:01;;;;;;;15.83;11.03;;;3.70;1.00;4.10;93578.00;;;;7396663;19;20133;-75
2023/04/20 10:34:36;;;;;;;16.13;11.60;;;3.70;1.00;4.20;93603.00;;;;7396696;19;20616;-78
2023/04/20 10:37:12;;;;;;;17.43;11.53;;;3.60;1.00;4.10;93588.00;;;;7396427;19;20208;-76
2023/04/20 10:39:47;;;;;;;19.37;11.50;;;3.60;1.00;4.10;93549.00;;;;7395682;19;20139;-77
2023/04/20 10:42:14;;;;;;;14.90;10.63;;;3.60;1.00;4.00;93586.00;;;;7396823;19;20148;-78
2023/04/20 10:44:49;;;;;;;18.43;11.07;;;3.50;1.00;3.90;93587.00;;;;7396765;19;20205;-79
2023/04/20 10:47:26;;;;;;;15.43;11.73;;;3.60;1.00;3.80;93595.00;;;;7396448;19;20129;-78
2023/04/20 10:50:14;;;;;;;17.50;11.23;;;3.40;1.00;3.80;93584.00;;;;7397573;19;20481;-77
2023/04/20 10:52:43;;;;;;;15.57;12.00;;;3.40;1.00;3.80;93568.00;;;;7397095;19;20133;-78
2023/04/20 10:55:25;;;;;;;15.20;12.00;;;3.30;1.00;3.90;93583.00;;;;7396791;19;20480;-79
2023/04/20 10:57:52;;;;;;;16.43;12.67;;;3.30;99.90;3.80;93575.00;;;;7392208;19;20144;-81
2023/04/20 11:00:28;;;;;;;15.23;12.13;;;3.30;99.90;3.60;93548.00;;;;7394186;19;20524;-77
2023/04/20 11:03:01;;;;;;;18.90;12.23;;;3.10;99.90;3.70;93552.00;;;;7395589;19;20176;-76
2023/04/20 11:05:28;;;;;;;21.80;12.40;;;3.00;99.90;3.50;93539.00;;;;7395146;19;20212;-78
2023/04/20 11:08:03;;;;;;;16.50;12.27;;;2.90;99.90;3.50;93543.00;;;;7396656;19;20468;-77
2023/04/20 11:10:47;;;;;;;19.23;13.57;;;2.90;1.00;3.50;93585.00;;;;7395274;19;20157;-77
2023/04/20 11:13:28;;;;;;;15.73;12.27;;;3.00;1.00;3.60;93547.00;;;;7397409;19;20604;-77
2023/04/20 11:15:55;;;;;;;16.80;12.63;;;3.00;55.30;3.60;93585.00;;;;7396538;19;20131;-77
2023/04/20 11:18:35;;;;;;;19.70;13.13;;;3.00;80.10;3.60;93559.00;;;;7395505;19;20153;-77
2023/04/20 11:21:04;;;;;;;17.90;13.20;;;3.00;95.50;3.70;93582.00;;;;7397051;19;20145;-78
2023/04/20 11:23:40;;;;;;;20.93;12.67;;;3.00;1.00;3.70;93552.00;;;;7396324;19;20140;-78
2023/04/20 11:26:14;;;;;;;17.83;12.93;;;3.00;49.90;3.80;93568.00;;;;7395635;19;20137;-78